createdAt,value
2024-01-29T00:00:05.828Z,7.97
2024-01-29T00:05:14.865Z,7.88
2024-01-29T00:10:23.845Z,7.83
2024-01-29T00:15:33.180Z,8.02
2024-01-29T00:20:41.681Z,7.45
2024-01-29T00:25:50.795Z,7.37
2024-01-29T00:30:59.489Z,7.98
2024-01-29T00:36:08.694Z,7.77
2024-01-29T00:41:17.275Z,8.13
2024-01-29T00:46:26.246Z,7.74
2024-01-29T00:51:35.099Z,7.69
2024-01-29T00:56:43.963Z,8.40
2024-01-29T01:01:52.637Z,8.08
2024-01-29T01:07:01.851Z,8.16
2024-01-29T01:12:10.853Z,8.17
2024-01-29T01:17:20.029Z,8.08
2024-01-29T01:22:28.674Z,8.45
2024-01-29T01:27:38.192Z,8.31
2024-01-29T01:32:47.060Z,9.21
2024-01-29T01:37:56.218Z,9.05
2024-01-29T01:43:05.349Z,9.41
2024-01-29T01:48:14.383Z,9.22
2024-01-29T01:53:22.871Z,9.05
2024-01-29T01:58:31.802Z,9.22
2024-01-29T02:03:40.776Z,9.38
2024-01-29T02:08:50.073Z,8.85
2024-01-29T02:13:58.893Z,8.39
2024-01-29T02:19:08.029Z,8.26
2024-01-29T02:24:16.934Z,8.88
2024-01-29T02:29:25.715Z,9.48
2024-01-29T02:34:34.452Z,8.89
2024-01-29T02:39:44.968Z,8.13
2024-01-29T02:44:43.477Z,7.57
2024-01-29T02:49:53.195Z,7.66
2024-01-29T02:55:01.870Z,7.73
2024-01-29T03:00:10.721Z,6.88
2024-01-29T03:05:20.183Z,7.11
2024-01-29T03:10:28.989Z,7.22
2024-01-29T03:15:40.042Z,7.11
2024-01-29T03:20:38.967Z,6.98
2024-01-29T03:25:47.538Z,6.30
2024-01-29T03:30:56.655Z,6.37
2024-01-29T03:36:05.429Z,6.31
2024-01-29T03:41:14.170Z,6.36
2024-01-29T03:46:22.737Z,6.13
2024-01-29T03:51:32.100Z,6.05
2024-01-29T03:56:40.549Z,5.67
2024-01-29T04:01:49.089Z,5.49
2024-01-29T04:06:57.925Z,5.35
2024-01-29T04:12:07.137Z,5.77
2024-01-29T04:17:15.840Z,5.83
2024-01-29T04:22:24.708Z,5.90
2024-01-29T04:27:33.540Z,5.57
2024-01-29T04:32:42.676Z,5.23
2024-01-29T04:37:51.803Z,4.72
2024-01-29T04:43:00.513Z,5.66
2024-01-29T04:48:08.952Z,6.24
2024-01-29T04:53:17.752Z,5.37
2024-01-29T04:58:26.847Z,5.18
2024-01-29T05:03:35.669Z,5.37
2024-01-29T05:08:44.594Z,6.06
2024-01-29T05:13:54.158Z,6.03
2024-01-29T05:19:03.083Z,5.82
2024-01-29T05:24:12.037Z,5.34
2024-01-29T05:29:21.675Z,5.52
2024-01-29T05:34:31.500Z,5.70
2024-01-29T05:39:40.084Z,5.97
2024-01-29T05:44:49.028Z,5.97
2024-01-29T05:49:57.877Z,6.16
2024-01-29T05:55:07.629Z,6.07
2024-01-29T06:00:15.925Z,5.96
2024-01-29T06:05:25.386Z,6.08
2024-01-29T06:10:33.919Z,8.11
2024-01-29T06:15:42.764Z,7.25
2024-01-29T06:20:51.443Z,6.98
2024-01-29T06:26:00.968Z,6.23
2024-01-29T06:31:11.011Z,6.33
2024-01-29T06:36:10.401Z,6.18
2024-01-29T06:41:19.054Z,6.69
2024-01-29T06:46:28.221Z,6.10
2024-01-29T06:51:37.173Z,7.09
2024-01-29T06:56:47.511Z,6.57
2024-01-29T07:01:49.286Z,8.63
2024-01-29T07:06:48.301Z,8.67
2024-01-29T07:11:57.262Z,8.80
2024-01-29T07:17:06.014Z,9.33
2024-01-29T07:22:14.745Z,8.59
2024-01-29T07:27:26.575Z,9.08
2024-01-29T07:32:26.051Z,8.35
2024-01-29T07:37:35.291Z,8.42
2024-01-29T07:42:43.848Z,8.42
2024-01-29T07:47:53.164Z,7.84
2024-01-29T07:53:03.676Z,8.66
2024-01-29T07:58:10.901Z,9.46
2024-01-29T08:03:19.225Z,8.78
2024-01-29T08:08:28.850Z,8.83
2024-01-29T08:13:37.788Z,9.09
2024-01-29T08:18:46.933Z,9.08
2024-01-29T08:23:55.616Z,9.74
2024-01-29T08:29:04.694Z,10.52
2024-01-29T08:34:14.048Z,13.54
2024-01-29T08:39:23.735Z,11.01
2024-01-29T08:44:32.424Z,9.74
2024-01-29T08:49:41.509Z,9.77
2024-01-29T08:54:50.173Z,8.88
2024-01-29T08:59:59.441Z,11.31
2024-01-29T09:05:08.383Z,8.72
2024-01-29T09:10:17.217Z,9.03
2024-01-29T09:15:25.848Z,9.34
2024-01-29T09:20:35.077Z,9.73
2024-01-29T09:25:43.699Z,9.72
2024-01-29T09:30:52.920Z,9.99
2024-01-29T09:36:01.716Z,9.79
2024-01-29T09:41:11.107Z,10.14
2024-01-29T09:46:19.882Z,9.93
2024-01-29T09:51:30.487Z,10.02
2024-01-29T09:56:28.900Z,10.66
2024-01-29T10:01:38.903Z,9.97
2024-01-29T10:06:47.267Z,9.46
2024-01-29T10:11:56.604Z,9.67
2024-01-29T10:17:05.458Z,9.54
2024-01-29T10:22:14.920Z,10.15
2024-01-29T10:27:23.451Z,9.75
2024-01-29T10:32:32.586Z,10.09
2024-01-29T10:37:41.272Z,8.95
2024-01-29T10:42:50.230Z,8.31
2024-01-29T10:47:59.188Z,9.45
2024-01-29T10:53:08.085Z,8.41
2024-01-29T10:58:17.168Z,7.98
2024-01-29T11:03:26.767Z,8.11
2024-01-29T11:08:36.468Z,8.49
2024-01-29T11:13:45.868Z,8.32
2024-01-29T11:18:54.579Z,8.46
2024-01-29T11:24:03.440Z,8.87
2024-01-29T11:29:12.172Z,10.00
2024-01-29T11:34:21.597Z,8.69
2024-01-29T11:39:29.873Z,8.09
2024-01-29T11:44:38.794Z,7.95
2024-01-29T11:49:47.445Z,7.46
2024-01-29T11:54:56.524Z,7.40
2024-01-29T12:00:04.932Z,7.63
2024-01-29T12:05:14.583Z,7.74
2024-01-29T12:10:23.142Z,7.40
2024-01-29T12:15:31.826Z,6.69
2024-01-29T12:20:40.132Z,6.80
2024-01-29T12:25:49.100Z,6.16
2024-01-29T12:30:58.521Z,6.35
2024-01-29T12:36:06.754Z,6.91
2024-01-29T12:41:15.269Z,6.56
2024-01-29T12:46:24.492Z,6.56
2024-01-29T12:51:32.462Z,6.06
2024-01-29T12:56:41.478Z,7.48
2024-01-29T13:01:50.894Z,9.03
2024-01-29T13:07:00.356Z,9.03
2024-01-29T13:12:09.257Z,6.73
2024-01-29T13:17:18.920Z,6.60
2024-01-29T13:22:27.700Z,5.43
2024-01-29T13:27:36.824Z,7.63
2024-01-29T13:32:45.074Z,6.06
2024-01-29T13:37:53.660Z,5.63
2024-01-29T13:43:02.631Z,6.00
2024-01-29T13:48:11.467Z,4.31
2024-01-29T13:53:19.923Z,5.29
2024-01-29T13:58:29.091Z,4.65
2024-01-29T14:03:37.598Z,5.89
2024-01-29T14:08:46.917Z,6.73
2024-01-29T14:13:56.862Z,6.76
2024-01-29T14:19:06.099Z,8.25
2024-01-29T14:24:14.581Z,9.02
2024-01-29T14:29:24.066Z,9.41
2024-01-29T14:34:34.163Z,10.57
2024-01-29T14:39:42.900Z,9.99
2024-01-29T14:44:51.352Z,9.60
2024-01-29T14:49:59.760Z,9.64
2024-01-29T14:55:08.368Z,9.22
2024-01-29T15:00:17.661Z,9.68
2024-01-29T15:05:26.696Z,9.66
2024-01-29T15:10:35.646Z,9.37
2024-01-29T15:15:44.258Z,8.77
2024-01-29T15:20:54.856Z,9.14
2024-01-29T15:25:53.215Z,8.95
2024-01-29T15:31:02.398Z,8.30
2024-01-29T15:36:11.681Z,8.35
2024-01-29T15:41:23.747Z,8.15
2024-01-29T15:46:23.935Z,8.13
2024-01-29T15:51:25.330Z,8.00
2024-01-29T15:56:30.948Z,7.30
2024-01-29T16:01:39.948Z,7.19
2024-01-29T16:06:49.660Z,6.84
2024-01-29T16:11:59.717Z,6.57
2024-01-29T16:16:59.502Z,5.90
2024-01-29T16:22:09.176Z,5.89
2024-01-29T16:27:17.576Z,5.22
2024-01-29T16:32:26.544Z,4.79
2024-01-29T16:37:35.351Z,4.70
2024-01-29T16:42:44.361Z,4.80
2024-01-29T16:47:53.106Z,4.22
2024-01-29T16:53:01.834Z,4.20
2024-01-29T16:58:10.688Z,3.92
2024-01-29T17:03:19.936Z,4.03
2024-01-29T17:08:28.324Z,3.63
2024-01-29T17:13:37.362Z,3.53
2024-01-29T17:18:46.084Z,3.57
2024-01-29T17:23:54.938Z,3.96
2024-01-29T17:29:03.379Z,3.38
2024-01-29T17:34:12.122Z,3.78
2024-01-29T17:39:22.020Z,3.61
2024-01-29T17:44:30.803Z,3.77
2024-01-29T17:49:40.740Z,4.19
2024-01-29T17:54:49.419Z,3.77
2024-01-29T17:59:57.940Z,4.32
2024-01-29T18:05:06.752Z,3.84
2024-01-29T18:10:15.493Z,3.82
2024-01-29T18:15:25.431Z,3.39
2024-01-29T18:20:32.308Z,2.96
2024-01-29T18:25:41.547Z,2.95
2024-01-29T18:30:49.930Z,3.01
2024-01-29T18:35:58.856Z,2.88
2024-01-29T18:41:07.690Z,2.58
2024-01-29T18:46:17.053Z,3.12
2024-01-29T18:51:24.696Z,2.93
2024-01-29T18:56:33.531Z,2.90
2024-01-29T19:01:41.916Z,2.45
2024-01-29T19:06:50.998Z,2.70
2024-01-29T19:11:59.467Z,2.56
2024-01-29T19:17:08.473Z,2.52
2024-01-29T19:22:17.250Z,2.44
2024-01-29T19:27:26.011Z,2.49
2024-01-29T19:32:34.576Z,2.52
2024-01-29T19:37:43.440Z,2.44
2024-01-29T19:42:53.040Z,2.43
2024-01-29T19:48:02.062Z,2.50
2024-01-29T19:53:10.603Z,2.49
2024-01-29T19:58:21.154Z,2.34
2024-01-29T20:03:20.019Z,2.37
2024-01-29T20:08:29.408Z,2.49
2024-01-29T20:13:37.904Z,2.16
2024-01-29T20:18:47.046Z,2.25
2024-01-29T20:23:55.488Z,2.05
2024-01-29T20:29:04.278Z,2.17
2024-01-29T20:34:12.869Z,1.97
2024-01-29T20:39:22.004Z,2.25
2024-01-29T20:44:30.752Z,2.06
2024-01-29T20:49:39.506Z,1.92
2024-01-29T20:54:48.163Z,1.88
2024-01-29T20:59:56.982Z,2.01
2024-01-29T21:05:04.873Z,1.94
2024-01-29T21:10:14.198Z,2.08
2024-01-29T21:15:22.472Z,1.96
2024-01-29T21:20:31.360Z,1.87
2024-01-29T21:25:40.009Z,1.99
2024-01-29T21:30:48.969Z,1.83
2024-01-29T21:35:57.150Z,1.85
2024-01-29T21:41:06.005Z,2.26
2024-01-29T21:46:20.119Z,2.20
2024-01-29T21:51:18.711Z,2.46
2024-01-29T21:56:28.192Z,2.42
2024-01-29T22:01:37.143Z,2.40
2024-01-29T22:06:46.292Z,2.46
2024-01-29T22:11:54.749Z,2.67
2024-01-29T22:17:03.334Z,2.35
2024-01-29T22:22:12.294Z,2.72
2024-01-29T22:27:20.761Z,2.69
2024-01-29T22:32:29.766Z,2.69
2024-01-29T22:37:38.398Z,2.81
2024-01-29T22:42:47.204Z,2.85
2024-01-29T22:47:55.918Z,2.94
2024-01-29T22:53:05.449Z,2.87
2024-01-29T22:58:14.347Z,2.87
2024-01-29T23:03:23.783Z,3.11
2024-01-29T23:08:32.214Z,2.66
2024-01-29T23:13:41.061Z,2.77
2024-01-29T23:18:49.668Z,2.46
2024-01-29T23:23:58.953Z,2.52
2024-01-29T23:29:07.639Z,2.70
2024-01-29T23:34:16.615Z,2.68
2024-01-29T23:39:24.902Z,2.46
2024-01-29T23:44:33.376Z,2.55
2024-01-29T23:49:42.017Z,2.46
2024-01-29T23:54:51.031Z,2.61
2024-01-29T23:59:59.406Z,2.30
